sensor_id;sensor_type;location;lat;lon;timestamp;P1;durP1;ratioP1;P2;durP2;ratioP2
11604;SDS011;5858;43.076;25.626;2022-08-03T00:00:58;2.05;;;1.90;;
11604;SDS011;5858;43.076;25.626;2022-08-03T00:03:25;2.10;;;1.50;;
11604;SDS011;5858;43.076;25.626;2022-08-03T00:05:52;1.80;;;1.70;;
11604;SDS011;5858;43.076;25.626;2022-08-03T00:08:20;1.88;;;1.77;;
11604;SDS011;5858;43.076;25.626;2022-08-03T00:10:48;2.15;;;1.98;;
11604;SDS011;5858;43.076;25.626;2022-08-03T00:13:15;1.83;;;1.70;;
11604;SDS011;5858;43.076;25.626;2022-08-03T00:20:58;2.10;;;1.92;;
11604;SDS011;5858;43.076;25.626;2022-08-03T00:23:25;2.15;;;1.95;;
11604;SDS011;5858;43.076;25.626;2022-08-03T00:25:53;2.10;;;1.90;;
11604;SDS011;5858;43.076;25.626;2022-08-03T00:28:20;2.38;;;1.83;;
11604;SDS011;5858;43.076;25.626;2022-08-03T00:30:47;2.67;;;1.88;;
11604;SDS011;5858;43.076;25.626;2022-08-03T00:33:15;1.85;;;1.75;;
11604;SDS011;5858;43.076;25.626;2022-08-03T00:35:42;2.00;;;1.80;;
11604;SDS011;5858;43.076;25.626;2022-08-03T00:38:09;2.53;;;1.90;;
11604;SDS011;5858;43.076;25.626;2022-08-03T00:40:36;2.88;;;1.60;;
11604;SDS011;5858;43.076;25.626;2022-08-03T00:43:05;2.97;;;2.50;;
11604;SDS011;5858;43.076;25.626;2022-08-03T00:45:36;2.80;;;2.30;;
11604;SDS011;5858;43.076;25.626;2022-08-03T00:48:06;6.82;;;2.88;;
11604;SDS011;5858;43.076;25.626;2022-08-03T00:50:36;3.75;;;3.00;;
11604;SDS011;5858;43.076;25.626;2022-08-03T00:53:06;4.60;;;3.30;;
11604;SDS011;5858;43.076;25.626;2022-08-03T00:55:36;4.88;;;2.58;;
11604;SDS011;5858;43.076;25.626;2022-08-03T00:58:05;3.45;;;2.72;;
11604;SDS011;5858;43.076;25.626;2022-08-03T01:00:33;3.63;;;2.55;;
11604;SDS011;5858;43.076;25.626;2022-08-03T01:03:03;3.20;;;2.63;;
11604;SDS011;5858;43.076;25.626;2022-08-03T01:05:31;2.92;;;2.53;;
11604;SDS011;5858;43.076;25.626;2022-08-03T01:08:05;3.63;;;2.78;;
11604;SDS011;5858;43.076;25.626;2022-08-03T01:10:41;4.40;;;3.20;;
11604;SDS011;5858;43.076;25.626;2022-08-03T01:13:22;6.90;;;3.22;;
11604;SDS011;5858;43.076;25.626;2022-08-03T01:15:55;4.80;;;3.08;;
11604;SDS011;5858;43.076;25.626;2022-08-03T01:18:29;4.15;;;3.05;;
11604;SDS011;5858;43.076;25.626;2022-08-03T01:21:02;4.35;;;3.20;;
11604;SDS011;5858;43.076;25.626;2022-08-03T01:23:48;3.40;;;2.70;;
11604;SDS011;5858;43.076;25.626;2022-08-03T01:26:40;4.13;;;2.50;;
11604;SDS011;5858;43.076;25.626;2022-08-03T01:32:17;2.13;;;1.88;;
11604;SDS011;5858;43.076;25.626;2022-08-03T01:34:50;2.40;;;2.15;;
11604;SDS011;5858;43.076;25.626;2022-08-03T01:37:31;4.35;;;2.47;;
11604;SDS011;5858;43.076;25.626;2022-08-03T01:40:02;5.68;;;2.47;;
11604;SDS011;5858;43.076;25.626;2022-08-03T01:42:37;3.17;;;2.13;;
11604;SDS011;5858;43.076;25.626;2022-08-03T01:45:09;2.63;;;2.15;;
11604;SDS011;5858;43.076;25.626;2022-08-03T01:47:38;3.13;;;2.00;;
11604;SDS011;5858;43.076;25.626;2022-08-03T01:50:06;2.80;;;2.08;;
11604;SDS011;5858;43.076;25.626;2022-08-03T01:52:36;2.25;;;2.05;;
11604;SDS011;5858;43.076;25.626;2022-08-03T01:55:06;1.90;;;1.70;;
11604;SDS011;5858;43.076;25.626;2022-08-03T01:57:36;3.47;;;2.00;;
11604;SDS011;5858;43.076;25.626;2022-08-03T02:00:05;2.10;;;1.95;;
11604;SDS011;5858;43.076;25.626;2022-08-03T02:02:35;2.97;;;1.90;;
11604;SDS011;5858;43.076;25.626;2022-08-03T02:05:04;2.72;;;2.15;;
11604;SDS011;5858;43.076;25.626;2022-08-03T02:07:36;4.43;;;1.80;;
11604;SDS011;5858;43.076;25.626;2022-08-03T02:10:05;2.17;;;1.92;;
11604;SDS011;5858;43.076;25.626;2022-08-03T02:12:34;2.10;;;1.77;;
11604;SDS011;5858;43.076;25.626;2022-08-03T02:15:04;4.32;;;2.45;;
11604;SDS011;5858;43.076;25.626;2022-08-03T02:17:34;4.30;;;1.85;;
11604;SDS011;5858;43.076;25.626;2022-08-03T02:20:04;3.30;;;1.70;;
11604;SDS011;5858;43.076;25.626;2022-08-03T02:22:32;1.70;;;1.60;;
11604;SDS011;5858;43.076;25.626;2022-08-03T02:25:01;2.25;;;2.05;;
11604;SDS011;5858;43.076;25.626;2022-08-03T02:27:28;2.03;;;1.80;;
11604;SDS011;5858;43.076;25.626;2022-08-03T02:30:00;2.00;;;1.90;;
11604;SDS011;5858;43.076;25.626;2022-08-03T02:32:33;2.45;;;2.25;;
11604;SDS011;5858;43.076;25.626;2022-08-03T02:35:05;2.40;;;2.20;;
11604;SDS011;5858;43.076;25.626;2022-08-03T02:37:36;4.82;;;2.78;;
11604;SDS011;5858;43.076;25.626;2022-08-03T02:40:09;3.28;;;2.38;;
11604;SDS011;5858;43.076;25.626;2022-08-03T02:42:38;4.35;;;2.42;;
11604;SDS011;5858;43.076;25.626;2022-08-03T02:45:08;3.95;;;2.25;;
11604;SDS011;5858;43.076;25.626;2022-08-03T02:47:38;6.50;;;2.60;;
11604;SDS011;5858;43.076;25.626;2022-08-03T02:50:09;2.38;;;2.17;;
11604;SDS011;5858;43.076;25.626;2022-08-03T02:52:37;2.45;;;2.25;;
11604;SDS011;5858;43.076;25.626;2022-08-03T02:55:07;5.15;;;2.47;;
11604;SDS011;5858;43.076;25.626;2022-08-03T02:57:40;4.53;;;2.47;;
11604;SDS011;5858;43.076;25.626;2022-08-03T03:00:10;4.50;;;2.63;;
11604;SDS011;5858;43.076;25.626;2022-08-03T03:02:39;3.88;;;2.60;;
11604;SDS011;5858;43.076;25.626;2022-08-03T03:05:13;6.05;;;2.75;;
11604;SDS011;5858;43.076;25.626;2022-08-03T03:07:43;3.90;;;2.65;;
11604;SDS011;5858;43.076;25.626;2022-08-03T03:10:33;3.65;;;2.35;;
11604;SDS011;5858;43.076;25.626;2022-08-03T03:13:02;2.65;;;2.45;;
11604;SDS011;5858;43.076;25.626;2022-08-03T03:15:30;3.70;;;2.40;;
11604;SDS011;5858;43.076;25.626;2022-08-03T03:18:12;4.32;;;2.35;;
11604;SDS011;5858;43.076;25.626;2022-08-03T03:20:45;5.70;;;2.70;;
11604;SDS011;5858;43.076;25.626;2022-08-03T03:23:42;4.57;;;2.60;;
11604;SDS011;5858;43.076;25.626;2022-08-03T03:26:10;3.38;;;2.40;;
11604;SDS011;5858;43.076;25.626;2022-08-03T03:28:44;3.92;;;2.78;;
11604;SDS011;5858;43.076;25.626;2022-08-03T03:31:26;17.08;;;3.28;;
11604;SDS011;5858;43.076;25.626;2022-08-03T03:33:57;3.58;;;2.72;;
11604;SDS011;5858;43.076;25.626;2022-08-03T03:36:26;5.85;;;2.70;;
11604;SDS011;5858;43.076;25.626;2022-08-03T03:38:57;9.20;;;3.03;;
11604;SDS011;5858;43.076;25.626;2022-08-03T03:41:26;5.82;;;4.28;;
11604;SDS011;5858;43.076;25.626;2022-08-03T03:44:01;5.57;;;3.63;;
11604;SDS011;5858;43.076;25.626;2022-08-03T03:46:35;5.47;;;4.13;;
11604;SDS011;5858;43.076;25.626;2022-08-03T03:49:07;4.20;;;3.40;;
11604;SDS011;5858;43.076;25.626;2022-08-03T03:51:42;4.28;;;3.15;;
11604;SDS011;5858;43.076;25.626;2022-08-03T03:54:12;4.40;;;3.40;;
11604;SDS011;5858;43.076;25.626;2022-08-03T03:56:41;3.95;;;3.30;;
11604;SDS011;5858;43.076;25.626;2022-08-03T03:59:18;5.80;;;4.07;;
11604;SDS011;5858;43.076;25.626;2022-08-03T04:01:47;5.38;;;3.65;;
11604;SDS011;5858;43.076;25.626;2022-08-03T04:04:15;4.40;;;3.88;;
11604;SDS011;5858;43.076;25.626;2022-08-03T04:07:04;6.22;;;3.72;;
11604;SDS011;5858;43.076;25.626;2022-08-03T04:09:48;4.10;;;3.63;;
11604;SDS011;5858;43.076;25.626;2022-08-03T04:12:38;8.40;;;5.35;;
11604;SDS011;5858;43.076;25.626;2022-08-03T04:15:07;13.32;;;6.68;;
11604;SDS011;5858;43.076;25.626;2022-08-03T04:17:40;9.38;;;5.80;;
11604;SDS011;5858;43.076;25.626;2022-08-03T04:20:14;7.90;;;5.90;;
11604;SDS011;5858;43.076;25.626;2022-08-03T04:23:04;9.65;;;5.20;;
11604;SDS011;5858;43.076;25.626;2022-08-03T04:25:35;6.85;;;5.00;;
11604;SDS011;5858;43.076;25.626;2022-08-03T04:28:14;4.70;;;3.80;;
11604;SDS011;5858;43.076;25.626;2022-08-03T04:30:49;5.20;;;3.65;;
11604;SDS011;5858;43.076;25.626;2022-08-03T04:33:18;11.38;;;4.00;;
11604;SDS011;5858;43.076;25.626;2022-08-03T04:35:52;9.10;;;3.17;;
11604;SDS011;5858;43.076;25.626;2022-08-03T04:38:26;6.22;;;4.20;;
11604;SDS011;5858;43.076;25.626;2022-08-03T04:40:55;6.20;;;3.78;;
11604;SDS011;5858;43.076;25.626;2022-08-03T04:43:25;7.40;;;3.95;;
11604;SDS011;5858;43.076;25.626;2022-08-03T04:45:56;7.80;;;3.83;;
11604;SDS011;5858;43.076;25.626;2022-08-03T04:48:57;11.75;;;3.55;;
11604;SDS011;5858;43.076;25.626;2022-08-03T04:51:25;4.15;;;3.70;;
11604;SDS011;5858;43.076;25.626;2022-08-03T04:54:04;4.22;;;3.22;;
11604;SDS011;5858;43.076;25.626;2022-08-03T04:56:33;4.05;;;3.38;;
11604;SDS011;5858;43.076;25.626;2022-08-03T04:59:02;6.10;;;3.90;;
11604;SDS011;5858;43.076;25.626;2022-08-03T05:01:30;6.60;;;4.60;;
11604;SDS011;5858;43.076;25.626;2022-08-03T05:03:57;9.35;;;5.97;;
11604;SDS011;5858;43.076;25.626;2022-08-03T05:06:27;14.13;;;6.43;;
11604;SDS011;5858;43.076;25.626;2022-08-03T05:08:54;10.48;;;5.47;;
11604;SDS011;5858;43.076;25.626;2022-08-03T05:11:24;9.77;;;5.75;;
11604;SDS011;5858;43.076;25.626;2022-08-03T05:13:53;11.25;;;6.03;;
11604;SDS011;5858;43.076;25.626;2022-08-03T05:16:23;15.50;;;5.90;;
11604;SDS011;5858;43.076;25.626;2022-08-03T05:18:51;8.02;;;5.82;;
11604;SDS011;5858;43.076;25.626;2022-08-03T05:21:34;7.97;;;5.63;;
11604;SDS011;5858;43.076;25.626;2022-08-03T05:24:03;7.20;;;5.28;;
11604;SDS011;5858;43.076;25.626;2022-08-03T05:26:39;8.10;;;5.00;;
11604;SDS011;5858;43.076;25.626;2022-08-03T05:29:10;8.35;;;5.20;;
11604;SDS011;5858;43.076;25.626;2022-08-03T05:31:37;5.85;;;4.80;;
11604;SDS011;5858;43.076;25.626;2022-08-03T05:34:05;6.30;;;4.20;;
11604;SDS011;5858;43.076;25.626;2022-08-03T05:36:33;6.82;;;3.92;;
11604;SDS011;5858;43.076;25.626;2022-08-03T05:52:33;6.35;;;3.20;;
11604;SDS011;5858;43.076;25.626;2022-08-03T05:55:00;4.30;;;3.00;;
11604;SDS011;5858;43.076;25.626;2022-08-03T05:57:27;3.53;;;3.22;;
11604;SDS011;5858;43.076;25.626;2022-08-03T05:59:54;5.80;;;3.22;;
11604;SDS011;5858;43.076;25.626;2022-08-03T06:02:26;4.53;;;2.60;;
11604;SDS011;5858;43.076;25.626;2022-08-03T06:04:53;3.53;;;2.65;;
11604;SDS011;5858;43.076;25.626;2022-08-03T06:07:20;6.70;;;2.50;;
11604;SDS011;5858;43.076;25.626;2022-08-03T06:09:58;2.65;;;2.38;;
11604;SDS011;5858;43.076;25.626;2022-08-03T06:12:28;5.80;;;2.80;;
11604;SDS011;5858;43.076;25.626;2022-08-03T06:15:00;4.57;;;2.75;;
11604;SDS011;5858;43.076;25.626;2022-08-03T06:17:44;4.32;;;2.60;;
11604;SDS011;5858;43.076;25.626;2022-08-03T06:20:12;3.35;;;2.47;;
11604;SDS011;5858;43.076;25.626;2022-08-03T06:22:47;4.15;;;2.60;;
11604;SDS011;5858;43.076;25.626;2022-08-03T06:28:00;5.10;;;2.60;;
11604;SDS011;5858;43.076;25.626;2022-08-03T06:30:29;2.00;;;1.80;;
11604;SDS011;5858;43.076;25.626;2022-08-03T06:33:02;1.58;;;1.48;;
11604;SDS011;5858;43.076;25.626;2022-08-03T06:35:29;2.03;;;1.40;;
11604;SDS011;5858;43.076;25.626;2022-08-03T06:37:56;2.00;;;1.40;;
11604;SDS011;5858;43.076;25.626;2022-08-03T06:40:24;1.65;;;1.50;;
11604;SDS011;5858;43.076;25.626;2022-08-03T06:42:56;1.60;;;1.50;;
11604;SDS011;5858;43.076;25.626;2022-08-03T06:45:28;1.70;;;1.60;;
11604;SDS011;5858;43.076;25.626;2022-08-03T06:48:02;2.38;;;1.80;;
11604;SDS011;5858;43.076;25.626;2022-08-03T06:50:35;2.15;;;1.55;;
11604;SDS011;5858;43.076;25.626;2022-08-03T06:53:04;1.75;;;1.30;;
11604;SDS011;5858;43.076;25.626;2022-08-03T06:55:34;2.88;;;1.65;;
11604;SDS011;5858;43.076;25.626;2022-08-03T06:58:05;3.08;;;1.58;;
11604;SDS011;5858;43.076;25.626;2022-08-03T07:00:32;2.40;;;2.17;;
11604;SDS011;5858;43.076;25.626;2022-08-03T07:02:58;2.33;;;1.55;;
11604;SDS011;5858;43.076;25.626;2022-08-03T07:05:25;1.63;;;1.52;;
11604;SDS011;5858;43.076;25.626;2022-08-03T07:07:53;1.75;;;1.65;;
11604;SDS011;5858;43.076;25.626;2022-08-03T07:10:21;1.63;;;1.52;;
11604;SDS011;5858;43.076;25.626;2022-08-03T07:12:50;2.63;;;1.40;;
11604;SDS011;5858;43.076;25.626;2022-08-03T07:15:22;2.03;;;1.50;;
11604;SDS011;5858;43.076;25.626;2022-08-03T07:17:50;3.33;;;1.48;;
11604;SDS011;5858;43.076;25.626;2022-08-03T07:20:17;3.17;;;1.40;;
11604;SDS011;5858;43.076;25.626;2022-08-03T07:22:44;2.63;;;1.70;;
11604;SDS011;5858;43.076;25.626;2022-08-03T07:25:13;1.52;;;1.42;;
11604;SDS011;5858;43.076;25.626;2022-08-03T07:27:42;3.47;;;1.42;;
11604;SDS011;5858;43.076;25.626;2022-08-03T07:30:10;2.58;;;1.45;;
11604;SDS011;5858;43.076;25.626;2022-08-03T07:32:40;2.40;;;1.75;;
11604;SDS011;5858;43.076;25.626;2022-08-03T07:35:07;2.08;;;1.60;;
11604;SDS011;5858;43.076;25.626;2022-08-03T07:37:35;2.78;;;1.40;;
11604;SDS011;5858;43.076;25.626;2022-08-03T07:40:04;1.70;;;1.60;;
11604;SDS011;5858;43.076;25.626;2022-08-03T07:42:37;1.50;;;1.40;;
11604;SDS011;5858;43.076;25.626;2022-08-03T07:45:04;3.03;;;1.50;;
11604;SDS011;5858;43.076;25.626;2022-08-03T07:47:38;1.90;;;1.52;;
11604;SDS011;5858;43.076;25.626;2022-08-03T07:50:10;3.65;;;1.80;;
11604;SDS011;5858;43.076;25.626;2022-08-03T07:52:37;1.52;;;1.42;;
11604;SDS011;5858;43.076;25.626;2022-08-03T07:55:19;1.75;;;1.65;;
11604;SDS011;5858;43.076;25.626;2022-08-03T07:57:59;1.50;;;1.40;;
11604;SDS011;5858;43.076;25.626;2022-08-03T08:00:30;4.20;;;1.67;;
11604;SDS011;5858;43.076;25.626;2022-08-03T08:03:21;3.47;;;1.85;;
11604;SDS011;5858;43.076;25.626;2022-08-03T08:06:01;1.90;;;1.52;;
11604;SDS011;5858;43.076;25.626;2022-08-03T08:08:28;1.77;;;1.55;;
11604;SDS011;5858;43.076;25.626;2022-08-03T08:10:58;3.45;;;1.60;;
11604;SDS011;5858;43.076;25.626;2022-08-03T08:13:38;1.73;;;1.63;;
11604;SDS011;5858;43.076;25.626;2022-08-03T08:16:33;1.52;;;1.42;;
11604;SDS011;5858;43.076;25.626;2022-08-03T08:19:02;2.85;;;1.83;;
11604;SDS011;5858;43.076;25.626;2022-08-03T08:21:29;2.83;;;2.17;;
11604;SDS011;5858;43.076;25.626;2022-08-03T08:23:56;1.75;;;1.65;;
11604;SDS011;5858;43.076;25.626;2022-08-03T08:26:23;2.10;;;1.83;;
11604;SDS011;5858;43.076;25.626;2022-08-03T08:28:50;2.13;;;1.95;;
11604;SDS011;5858;43.076;25.626;2022-08-03T08:31:17;2.63;;;1.70;;
11604;SDS011;5858;43.076;25.626;2022-08-03T08:33:44;3.90;;;1.77;;
11604;SDS011;5858;43.076;25.626;2022-08-03T08:36:12;1.98;;;1.80;;
11604;SDS011;5858;43.076;25.626;2022-08-03T08:38:53;2.95;;;2.30;;
11604;SDS011;5858;43.076;25.626;2022-08-03T08:41:23;1.90;;;1.60;;
11604;SDS011;5858;43.076;25.626;2022-08-03T08:43:53;2.30;;;1.98;;
11604;SDS011;5858;43.076;25.626;2022-08-03T08:46:20;2.17;;;1.98;;
11604;SDS011;5858;43.076;25.626;2022-08-03T08:49:05;2.92;;;2.30;;
11604;SDS011;5858;43.076;25.626;2022-08-03T08:51:59;2.72;;;1.90;;
11604;SDS011;5858;43.076;25.626;2022-08-03T08:54:34;2.30;;;2.10;;
11604;SDS011;5858;43.076;25.626;2022-08-03T08:57:25;3.97;;;2.42;;
11604;SDS011;5858;43.076;25.626;2022-08-03T09:00:11;2.65;;;1.77;;
11604;SDS011;5858;43.076;25.626;2022-08-03T09:02:50;2.72;;;2.10;;
11604;SDS011;5858;43.076;25.626;2022-08-03T09:05:19;2.38;;;2.03;;
11604;SDS011;5858;43.076;25.626;2022-08-03T09:07:48;3.38;;;1.80;;
11604;SDS011;5858;43.076;25.626;2022-08-03T09:10:17;2.20;;;2.00;;
11604;SDS011;5858;43.076;25.626;2022-08-03T09:12:47;3.92;;;1.85;;
11604;SDS011;5858;43.076;25.626;2022-08-03T09:15:22;3.97;;;2.75;;
11604;SDS011;5858;43.076;25.626;2022-08-03T09:17:50;2.45;;;2.25;;
11604;SDS011;5858;43.076;25.626;2022-08-03T09:20:27;2.35;;;2.10;;
11604;SDS011;5858;43.076;25.626;2022-08-03T09:23:05;2.25;;;2.05;;
11604;SDS011;5858;43.076;25.626;2022-08-03T09:25:35;2.15;;;1.95;;
11604;SDS011;5858;43.076;25.626;2022-08-03T09:28:07;1.88;;;1.77;;
11604;SDS011;5858;43.076;25.626;2022-08-03T09:30:36;3.40;;;1.90;;
11604;SDS011;5858;43.076;25.626;2022-08-03T09:33:05;2.83;;;1.95;;
11604;SDS011;5858;43.076;25.626;2022-08-03T09:35:41;2.20;;;1.92;;
11604;SDS011;5858;43.076;25.626;2022-08-03T09:38:13;2.90;;;1.80;;
11604;SDS011;5858;43.076;25.626;2022-08-03T09:40:43;3.00;;;2.03;;
11604;SDS011;5858;43.076;25.626;2022-08-03T09:43:11;2.35;;;1.90;;
11604;SDS011;5858;43.076;25.626;2022-08-03T09:45:38;1.90;;;1.75;;
11604;SDS011;5858;43.076;25.626;2022-08-03T09:48:20;2.03;;;1.60;;
11604;SDS011;5858;43.076;25.626;2022-08-03T09:50:51;2.28;;;1.90;;
11604;SDS011;5858;43.076;25.626;2022-08-03T09:53:23;2.03;;;1.70;;
11604;SDS011;5858;43.076;25.626;2022-08-03T09:55:52;1.98;;;1.88;;
11604;SDS011;5858;43.076;25.626;2022-08-03T09:58:22;1.40;;;1.30;;
11604;SDS011;5858;43.076;25.626;2022-08-03T10:00:53;1.70;;;1.60;;
11604;SDS011;5858;43.076;25.626;2022-08-03T10:06:14;3.85;;;1.98;;
11604;SDS011;5858;43.076;25.626;2022-08-03T10:15:51;2.47;;;1.90;;
11604;SDS011;5858;43.076;25.626;2022-08-03T10:18:59;1.90;;;1.70;;
11604;SDS011;5858;43.076;25.626;2022-08-03T10:25:03;2.28;;;1.63;;
11604;SDS011;5858;43.076;25.626;2022-08-03T10:27:55;3.10;;;1.70;;
11604;SDS011;5858;43.076;25.626;2022-08-03T10:30:28;1.50;;;1.40;;
11604;SDS011;5858;43.076;25.626;2022-08-03T10:32:58;2.45;;;1.83;;
11604;SDS011;5858;43.076;25.626;2022-08-03T10:35:28;4.70;;;2.05;;
11604;SDS011;5858;43.076;25.626;2022-08-03T10:37:57;1.80;;;1.70;;
11604;SDS011;5858;43.076;25.626;2022-08-03T10:40:25;1.75;;;1.45;;
11604;SDS011;5858;43.076;25.626;2022-08-03T10:42:57;1.73;;;1.63;;
11604;SDS011;5858;43.076;25.626;2022-08-03T10:45:28;2.42;;;1.70;;
11604;SDS011;5858;43.076;25.626;2022-08-03T10:47:59;3.08;;;1.63;;
11604;SDS011;5858;43.076;25.626;2022-08-03T10:50:26;3.05;;;1.58;;
11604;SDS011;5858;43.076;25.626;2022-08-03T10:52:55;2.35;;;1.63;;
11604;SDS011;5858;43.076;25.626;2022-08-03T10:55:28;3.63;;;1.60;;
11604;SDS011;5858;43.076;25.626;2022-08-03T11:00:51;1.90;;;1.80;;
11604;SDS011;5858;43.076;25.626;2022-08-03T11:03:18;4.10;;;1.50;;
11604;SDS011;5858;43.076;25.626;2022-08-03T11:05:45;1.70;;;1.60;;
11604;SDS011;5858;43.076;25.626;2022-08-03T11:08:18;1.60;;;1.50;;
11604;SDS011;5858;43.076;25.626;2022-08-03T11:10:49;1.85;;;1.50;;
11604;SDS011;5858;43.076;25.626;2022-08-03T11:13:19;1.45;;;1.05;;
11604;SDS011;5858;43.076;25.626;2022-08-03T11:15:51;2.75;;;1.55;;
11604;SDS011;5858;43.076;25.626;2022-08-03T11:28:40;1.80;;;1.70;;
11604;SDS011;5858;43.076;25.626;2022-08-03T11:34:14;1.92;;;1.65;;
11604;SDS011;5858;43.076;25.626;2022-08-03T11:39:50;3.42;;;1.70;;
11604;SDS011;5858;43.076;25.626;2022-08-03T11:45:12;2.45;;;1.73;;
11604;SDS011;5858;43.076;25.626;2022-08-03T11:47:40;1.92;;;1.73;;
11604;SDS011;5858;43.076;25.626;2022-08-03T11:50:10;1.98;;;1.35;;
11604;SDS011;5858;43.076;25.626;2022-08-03T11:52:40;1.73;;;1.50;;
11604;SDS011;5858;43.076;25.626;2022-08-03T11:55:08;2.75;;;1.70;;
11604;SDS011;5858;43.076;25.626;2022-08-03T11:57:47;2.25;;;1.58;;
11604;SDS011;5858;43.076;25.626;2022-08-03T12:00:18;2.33;;;1.55;;
11604;SDS011;5858;43.076;25.626;2022-08-03T12:02:58;1.85;;;1.50;;
11604;SDS011;5858;43.076;25.626;2022-08-03T12:05:36;2.60;;;1.23;;
11604;SDS011;5858;43.076;25.626;2022-08-03T12:08:06;4.35;;;1.85;;
11604;SDS011;5858;43.076;25.626;2022-08-03T12:10:36;2.08;;;1.55;;
11604;SDS011;5858;43.076;25.626;2022-08-03T12:13:04;1.60;;;1.50;;
11604;SDS011;5858;43.076;25.626;2022-08-03T12:15:34;1.85;;;1.40;;
11604;SDS011;5858;43.076;25.626;2022-08-03T12:18:12;2.15;;;1.60;;
11604;SDS011;5858;43.076;25.626;2022-08-03T12:20:40;2.88;;;1.88;;
11604;SDS011;5858;43.076;25.626;2022-08-03T12:23:08;3.47;;;1.88;;
11604;SDS011;5858;43.076;25.626;2022-08-03T12:25:35;1.63;;;1.50;;
11604;SDS011;5858;43.076;25.626;2022-08-03T12:28:11;5.85;;;1.60;;
11604;SDS011;5858;43.076;25.626;2022-08-03T12:30:43;1.70;;;1.30;;
11604;SDS011;5858;43.076;25.626;2022-08-03T12:33:13;2.15;;;1.45;;
11604;SDS011;5858;43.076;25.626;2022-08-03T12:35:44;4.40;;;1.60;;
11604;SDS011;5858;43.076;25.626;2022-08-03T12:38:18;2.85;;;1.85;;
11604;SDS011;5858;43.076;25.626;2022-08-03T12:40:54;2.00;;;1.38;;
11604;SDS011;5858;43.076;25.626;2022-08-03T12:43:22;1.63;;;1.52;;
11604;SDS011;5858;43.076;25.626;2022-08-03T12:45:49;1.75;;;1.65;;
11604;SDS011;5858;43.076;25.626;2022-08-03T12:48:17;2.35;;;1.65;;
11604;SDS011;5858;43.076;25.626;2022-08-03T12:50:44;1.65;;;1.50;;
11604;SDS011;5858;43.076;25.626;2022-08-03T12:53:11;1.77;;;1.60;;
11604;SDS011;5858;43.076;25.626;2022-08-03T12:55:38;4.78;;;1.45;;
11604;SDS011;5858;43.076;25.626;2022-08-03T12:58:06;1.75;;;1.30;;
11604;SDS011;5858;43.076;25.626;2022-08-03T13:00:36;3.33;;;1.13;;
11604;SDS011;5858;43.076;25.626;2022-08-03T13:03:05;1.85;;;1.42;;
11604;SDS011;5858;43.076;25.626;2022-08-03T13:05:42;1.35;;;1.13;;
11604;SDS011;5858;43.076;25.626;2022-08-03T13:08:16;1.70;;;1.20;;
11604;SDS011;5858;43.076;25.626;2022-08-03T13:10:47;1.48;;;1.38;;
11604;SDS011;5858;43.076;25.626;2022-08-03T13:13:14;1.60;;;1.50;;
11604;SDS011;5858;43.076;25.626;2022-08-03T13:15:45;1.58;;;1.23;;
11604;SDS011;5858;43.076;25.626;2022-08-03T13:18:11;1.50;;;1.40;;
11604;SDS011;5858;43.076;25.626;2022-08-03T13:20:38;2.90;;;1.50;;
11604;SDS011;5858;43.076;25.626;2022-08-03T13:23:07;1.45;;;1.30;;
11604;SDS011;5858;43.076;25.626;2022-08-03T13:25:34;1.65;;;1.50;;
11604;SDS011;5858;43.076;25.626;2022-08-03T13:28:00;1.40;;;1.30;;
11604;SDS011;5858;43.076;25.626;2022-08-03T13:30:28;4.15;;;1.35;;
11604;SDS011;5858;43.076;25.626;2022-08-03T13:32:55;1.55;;;1.45;;
11604;SDS011;5858;43.076;25.626;2022-08-03T13:35:26;1.98;;;1.65;;
11604;SDS011;5858;43.076;25.626;2022-08-03T13:37:53;3.00;;;1.45;;
11604;SDS011;5858;43.076;25.626;2022-08-03T13:40:23;2.35;;;1.52;;
11604;SDS011;5858;43.076;25.626;2022-08-03T13:42:50;1.90;;;1.17;;
11604;SDS011;5858;43.076;25.626;2022-08-03T13:45:17;1.52;;;1.30;;
11604;SDS011;5858;43.076;25.626;2022-08-03T13:47:44;1.30;;;1.20;;
11604;SDS011;5858;43.076;25.626;2022-08-03T13:50:11;1.40;;;1.30;;
11604;SDS011;5858;43.076;25.626;2022-08-03T13:52:39;1.38;;;1.27;;
11604;SDS011;5858;43.076;25.626;2022-08-03T13:55:06;1.40;;;1.30;;
11604;SDS011;5858;43.076;25.626;2022-08-03T13:57:35;1.40;;;1.30;;
11604;SDS011;5858;43.076;25.626;2022-08-03T14:00:03;2.05;;;1.45;;
11604;SDS011;5858;43.076;25.626;2022-08-03T14:02:30;1.77;;;1.50;;
11604;SDS011;5858;43.076;25.626;2022-08-03T14:04:57;5.72;;;1.70;;
11604;SDS011;5858;43.076;25.626;2022-08-03T14:07:24;2.08;;;1.58;;
11604;SDS011;5858;43.076;25.626;2022-08-03T14:09:51;1.83;;;1.73;;
11604;SDS011;5858;43.076;25.626;2022-08-03T14:12:18;3.47;;;2.92;;
11604;SDS011;5858;43.076;25.626;2022-08-03T14:14:46;2.47;;;2.25;;
11604;SDS011;5858;43.076;25.626;2022-08-03T14:17:13;10.60;;;6.75;;
11604;SDS011;5858;43.076;25.626;2022-08-03T14:19:40;24.23;;;12.40;;
11604;SDS011;5858;43.076;25.626;2022-08-03T14:22:07;7.65;;;4.43;;
11604;SDS011;5858;43.076;25.626;2022-08-03T14:24:34;20.65;;;11.40;;
11604;SDS011;5858;43.076;25.626;2022-08-03T14:27:00;4.57;;;3.05;;
11604;SDS011;5858;43.076;25.626;2022-08-03T14:29:27;5.28;;;2.30;;
11604;SDS011;5858;43.076;25.626;2022-08-03T14:31:59;1.90;;;1.70;;
11604;SDS011;5858;43.076;25.626;2022-08-03T14:34:26;1.85;;;1.75;;
11604;SDS011;5858;43.076;25.626;2022-08-03T14:36:53;2.92;;;1.83;;
11604;SDS011;5858;43.076;25.626;2022-08-03T14:39:20;1.92;;;1.65;;
11604;SDS011;5858;43.076;25.626;2022-08-03T14:41:48;2.20;;;1.85;;
11604;SDS011;5858;43.076;25.626;2022-08-03T14:44:15;2.10;;;1.88;;
11604;SDS011;5858;43.076;25.626;2022-08-03T14:46:42;2.38;;;1.48;;
11604;SDS011;5858;43.076;25.626;2022-08-03T14:49:10;1.90;;;1.42;;
11604;SDS011;5858;43.076;25.626;2022-08-03T14:51:38;1.63;;;1.52;;
11604;SDS011;5858;43.076;25.626;2022-08-03T14:54:05;3.30;;;1.52;;
11604;SDS011;5858;43.076;25.626;2022-08-03T14:56:32;1.70;;;1.60;;
11604;SDS011;5858;43.076;25.626;2022-08-03T14:58:58;2.15;;;1.23;;
11604;SDS011;5858;43.076;25.626;2022-08-03T15:01:25;1.35;;;1.25;;
11604;SDS011;5858;43.076;25.626;2022-08-03T15:03:52;1.58;;;1.20;;
11604;SDS011;5858;43.076;25.626;2022-08-03T15:06:21;1.50;;;1.40;;
11604;SDS011;5858;43.076;25.626;2022-08-03T15:08:47;2.33;;;1.63;;
11604;SDS011;5858;43.076;25.626;2022-08-03T15:11:15;1.80;;;1.48;;
11604;SDS011;5858;43.076;25.626;2022-08-03T15:13:42;1.50;;;1.40;;
11604;SDS011;5858;43.076;25.626;2022-08-03T15:16:08;1.60;;;1.50;;
11604;SDS011;5858;43.076;25.626;2022-08-03T15:18:35;2.35;;;1.25;;
11604;SDS011;5858;43.076;25.626;2022-08-03T15:21:02;1.42;;;1.30;;
11604;SDS011;5858;43.076;25.626;2022-08-03T15:23:31;3.40;;;1.42;;
11604;SDS011;5858;43.076;25.626;2022-08-03T15:25:58;1.30;;;1.20;;
11604;SDS011;5858;43.076;25.626;2022-08-03T15:28:25;1.70;;;1.40;;
11604;SDS011;5858;43.076;25.626;2022-08-03T15:30:52;1.73;;;1.55;;
11604;SDS011;5858;43.076;25.626;2022-08-03T15:33:20;1.65;;;1.50;;
11604;SDS011;5858;43.076;25.626;2022-08-03T15:35:47;1.50;;;1.40;;
11604;SDS011;5858;43.076;25.626;2022-08-03T15:38:14;1.60;;;1.45;;
11604;SDS011;5858;43.076;25.626;2022-08-03T15:40:48;2.08;;;1.63;;
11604;SDS011;5858;43.076;25.626;2022-08-03T15:43:18;2.05;;;1.40;;
11604;SDS011;5858;43.076;25.626;2022-08-03T15:45:45;4.95;;;1.80;;
11604;SDS011;5858;43.076;25.626;2022-08-03T15:48:12;2.70;;;1.40;;
11604;SDS011;5858;43.076;25.626;2022-08-03T15:50:39;1.42;;;1.33;;
11604;SDS011;5858;43.076;25.626;2022-08-03T15:53:06;2.20;;;1.48;;
11604;SDS011;5858;43.076;25.626;2022-08-03T15:55:33;1.88;;;1.40;;
11604;SDS011;5858;43.076;25.626;2022-08-03T15:58:01;2.13;;;1.77;;
11604;SDS011;5858;43.076;25.626;2022-08-03T16:00:29;2.05;;;1.50;;
11604;SDS011;5858;43.076;25.626;2022-08-03T16:02:56;2.80;;;1.63;;
11604;SDS011;5858;43.076;25.626;2022-08-03T16:05:23;1.98;;;1.77;;
11604;SDS011;5858;43.076;25.626;2022-08-03T16:07:50;1.50;;;1.40;;
11604;SDS011;5858;43.076;25.626;2022-08-03T16:10:20;3.38;;;2.03;;